Time;durP1;ratioP1;P1;durP2;ratioP2;P2;SDS_P1;SDS_P2;PMS_P1;PMS_P2;Temp;Humidity;BMP_temperature;BMP_pressure;BME280_temperature;BME280_humidity;BME280_pressure;Samples;Min_cycle;Max_cycle;Signal;HPM_P1;HPM_P2
2023/12/15 00:01:23;;;;;;;30.55;20.00;;;;;;;2.13;100.00;102004.72;7397486;19;20015;-68
2023/12/15 00:03:52;;;;;;;34.47;21.50;;;;;;;2.10;100.00;102002.91;7395390;19;20035;-69
2023/12/15 00:06:23;;;;;;;32.83;20.15;;;;;;;2.09;100.00;102008.91;7398427;19;20475;-67
2023/12/15 00:08:51;;;;;;;30.95;20.50;;;;;;;2.08;100.00;102007.16;7397021;19;20484;-66
2023/12/15 00:11:19;;;;;;;34.72;21.60;;;;;;;2.08;100.00;102017.50;7395937;19;20018;-66
2023/12/15 00:13:48;;;;;;;32.40;20.00;;;;;;;2.08;100.00;102013.19;7395486;19;20027;-66
2023/12/15 00:16:16;;;;;;;36.92;21.80;;;;;;;2.10;100.00;102015.88;7397016;19;20027;-66
2023/12/15 00:18:45;;;;;;;38.70;21.98;;;;;;;2.10;100.00;102021.03;7396615;19;20473;-66
2023/12/15 00:21:13;;;;;;;38.47;21.25;;;;;;;2.10;100.00;102027.09;7396860;19;20035;-66
2023/12/15 00:23:44;;;;;;;39.95;22.65;;;;;;;2.11;100.00;102026.25;7395746;19;20040;-65
2023/12/15 00:26:13;;;;;;;38.20;22.73;;;;;;;2.14;100.00;102029.75;7396779;19;20018;-66
2023/12/15 00:28:41;;;;;;;39.30;21.80;;;;;;;2.17;100.00;102029.88;7396561;19;20078;-66
2023/12/15 00:31:10;;;;;;;37.40;20.35;;;;;;;2.19;100.00;102036.88;7394831;19;20014;-66
2023/12/15 00:33:38;;;;;;;35.63;21.42;;;;;;;2.21;100.00;102043.00;7395406;19;20371;-66
2023/12/15 00:36:08;;;;;;;36.97;22.10;;;;;;;2.23;100.00;102040.44;7396255;19;20028;-67
2023/12/15 00:38:36;;;;;;;45.08;24.02;;;;;;;2.23;100.00;102046.50;7396326;19;20015;-66
2023/12/15 00:41:08;;;;;;;43.80;21.98;;;;;;;2.25;100.00;102052.63;7396210;19;20027;-67
2023/12/15 00:43:36;;;;;;;42.20;22.75;;;;;;;2.29;100.00;102056.19;7394077;19;20498;-66
2023/12/15 00:46:05;;;;;;;37.83;21.55;;;;;;;2.30;100.00;102055.38;7395635;19;20018;-66
2023/12/15 00:48:34;;;;;;;38.17;22.13;;;;;;;2.28;100.00;102069.97;7393506;19;20388;-66
2023/12/15 00:51:02;;;;;;;36.13;21.17;;;;;;;2.30;100.00;102076.09;7395485;19;20013;-66
2023/12/15 00:53:32;;;;;;;36.05;21.90;;;;;;;2.31;100.00;102072.66;7394933;19;20011;-66
2023/12/15 00:56:01;;;;;;;36.30;21.48;;;;;;;2.31;100.00;102075.25;7393748;19;20010;-67
2023/12/15 00:58:32;;;;;;;38.55;21.73;;;;;;;2.33;100.00;102077.91;7395787;19;20019;-66
2023/12/15 01:01:00;;;;;;;32.60;20.75;;;;;;;2.36;100.00;102083.19;7395339;19;20018;-66
2023/12/15 01:03:29;;;;;;;36.15;20.85;;;;;;;2.38;100.00;102079.81;7394641;19;20018;-66
2023/12/15 01:05:57;;;;;;;33.78;20.60;;;;;;;2.41;100.00;102084.22;7395517;19;20035;-66
2023/12/15 01:08:47;;;;;;;32.50;20.58;;;;;;;2.42;100.00;102086.84;7395514;19;20010;-66
2023/12/15 01:11:23;;;;;;;34.58;20.08;;;;;;;2.45;100.00;102093.84;7393618;19;20015;-66
2023/12/15 01:14:00;;;;;;;37.08;21.73;;;;;;;2.47;100.00;102091.31;7394411;19;20033;-66
2023/12/15 01:16:28;;;;;;;37.10;22.65;;;;;;;2.49;100.00;102093.13;7393901;19;20019;-66
2023/12/15 01:18:57;;;;;;;34.53;20.38;;;;;;;2.50;100.00;102099.19;7395243;19;20015;-66
2023/12/15 01:21:25;;;;;;;36.13;20.52;;;;;;;2.50;100.00;102109.53;7395163;19;20023;-66
2023/12/15 01:23:54;;;;;;;38.35;21.80;;;;;;;2.50;100.00;102114.72;7393809;19;20018;-66
2023/12/15 01:26:22;;;;;;;37.72;21.40;;;;;;;2.50;100.00;102117.31;7394383;19;20018;-66
2023/12/15 01:28:51;;;;;;;35.58;22.10;;;;;;;2.50;100.00;102119.91;7394938;19;20018;-66
2023/12/15 01:31:22;;;;;;;36.80;21.17;;;;;;;2.51;100.00;102117.34;7394464;19;20473;-66
2023/12/15 01:33:50;;;;;;;36.58;21.65;;;;;;;2.51;100.00;102121.66;7393798;19;20014;-66
2023/12/15 01:36:19;;;;;;;37.25;22.05;;;;;;;2.50;100.00;102125.09;7394367;19;20473;-66
2023/12/15 01:38:47;;;;;;;37.78;21.98;;;;;;;2.49;100.00;102129.41;7394613;19;20018;-66
2023/12/15 01:41:16;;;;;;;36.92;20.80;;;;;;;2.49;100.00;102132.00;7394237;19;20603;-66
2023/12/15 01:43:44;;;;;;;37.80;20.17;;;;;;;2.51;100.00;102137.22;7392155;19;20014;-66
2023/12/15 01:46:13;;;;;;;39.75;21.67;;;;;;;2.53;100.00;102140.75;7394484;19;20031;-66
2023/12/15 01:48:44;;;;;;;36.17;21.98;;;;;;;2.52;100.00;102136.41;7392429;19;20007;-65
2023/12/15 01:51:13;;;;;;;40.78;22.10;;;;;;;2.52;100.00;102137.25;7393961;19;20485;-65
2023/12/15 01:53:42;;;;;;;36.65;21.55;;;;;;;2.54;100.00;102145.06;7392254;19;20032;-65
2023/12/15 01:56:11;;;;;;;38.10;21.23;;;;;;;2.55;100.00;102157.22;7394124;19;20036;-65
2023/12/15 01:58:40;;;;;;;40.50;22.00;;;;;;;2.57;100.00;102158.16;7395322;19;20508;-65
2023/12/15 02:01:09;;;;;;;40.25;22.05;;;;;;;2.58;100.00;102159.94;7401487;19;20018;-66
2023/12/15 02:03:38;;;;;;;40.53;21.92;;;;;;;2.58;100.00;102165.97;7399855;19;20074;-66
2023/12/15 02:06:09;;;;;;;34.70;20.95;;;;;;;2.59;100.00;102167.75;7400908;19;20406;-67
2023/12/15 02:08:38;;;;;;;35.28;21.05;;;;;;;2.58;100.00;102162.50;7398434;19;20027;-66
2023/12/15 02:11:07;;;;;;;40.95;22.38;;;;;;;2.55;100.00;102170.16;7398798;19;20027;-67
2023/12/15 02:13:35;;;;;;;37.80;20.58;;;;;;;2.53;100.00;102175.31;7400339;19;20027;-67
2023/12/15 02:16:03;;;;;;;34.75;19.95;;;;;;;2.51;100.00;102179.53;7400962;19;20022;-67
2023/12/15 02:18:32;;;;;;;37.50;20.20;;;;;;;2.49;100.00;102175.13;7400898;19;20014;-67
2023/12/15 02:21:00;;;;;;;34.45;20.17;;;;;;;2.46;100.00;102172.44;7400448;19;20014;-66
2023/12/15 02:23:31;;;;;;;34.10;18.33;;;;;;;2.43;100.00;102174.09;7402626;19;20019;-67
2023/12/15 02:26:00;;;;;;;29.60;17.95;;;;;;;2.39;100.00;102172.22;7401120;19;20031;-66
2023/12/15 02:28:28;;;;;;;27.52;16.60;;;;;;;2.39;100.00;102179.09;7398641;19;20019;-66
2023/12/15 02:30:57;;;;;;;27.02;15.80;;;;;;;2.34;100.00;102185.84;7400510;19;20014;-67
2023/12/15 02:33:25;;;;;;;29.65;17.35;;;;;;;2.33;100.00;102190.16;7398873;19;20019;-67
2023/12/15 02:35:54;;;;;;;27.77;14.82;;;;;;;2.32;100.00;102190.97;7400413;19;20014;-67
2023/12/15 02:38:22;;;;;;;27.08;15.13;;;;;;;2.32;100.00;102187.50;7400275;19;20010;-66
2023/12/15 02:40:54;;;;;;;26.67;15.88;;;;;;;2.31;100.00;102191.78;7399786;19;20371;-67
2023/12/15 02:43:23;;;;;;;25.40;15.30;;;;;;;2.30;100.00;102199.50;7399275;19;20018;-67
2023/12/15 02:45:51;;;;;;;22.85;14.40;;;;;;;2.27;100.00;102197.69;7399676;19;20509;-67
2023/12/15 02:48:20;;;;;;;23.35;13.88;;;;;;;2.24;100.00;102200.19;7398264;19;20035;-67
2023/12/15 02:50:48;;;;;;;25.45;15.15;;;;;;;2.22;100.00;102201.81;7399881;19;20007;-67
2023/12/15 02:53:17;;;;;;;27.60;14.65;;;;;;;2.21;100.00;102210.41;7398802;19;20371;-66
2023/12/15 02:55:45;;;;;;;22.60;14.65;;;;;;;2.17;100.00;102206.84;7399348;19;20491;-67
2023/12/15 02:58:16;;;;;;;23.83;14.70;;;;;;;2.16;100.00;102209.38;7400777;19;20027;-68
2023/12/15 03:00:46;;;;;;;25.15;14.38;;;;;;;2.14;100.00;102208.41;7400072;19;20014;-68
2023/12/15 03:03:15;;;;;;;24.48;15.18;;;;;;;2.14;100.00;102218.78;7398961;19;20010;-66
2023/12/15 03:05:43;;;;;;;25.77;15.45;;;;;;;2.13;100.00;102220.50;7400158;19;20094;-67
2023/12/15 03:08:11;;;;;;;22.92;14.75;;;;;;;2.11;100.00;102219.56;7398069;19;20422;-67
2023/12/15 03:10:40;;;;;;;23.08;15.05;;;;;;;2.08;100.00;102228.09;7397252;19;20023;-67
2023/12/15 03:13:08;;;;;;;20.73;13.98;;;;;;;2.04;100.00;102227.94;7396863;19;20018;-67
2023/12/15 03:15:39;;;;;;;20.83;13.70;;;;;;;1.94;100.00;102226.69;7398570;19;20385;-67
2023/12/15 03:18:08;;;;;;;22.73;14.05;;;;;;;1.90;100.00;102223.13;7398631;19;20501;-67
2023/12/15 03:20:36;;;;;;;21.85;14.70;;;;;;;1.87;100.00;102224.69;7398872;19;20035;-67
2023/12/15 03:23:05;;;;;;;21.17;13.25;;;;;;;1.85;100.00;102231.53;7398133;19;20018;-67
2023/12/15 03:25:33;;;;;;;21.75;13.05;;;;;;;1.81;100.00;102227.94;7398605;19;20018;-67
2023/12/15 03:28:02;;;;;;;23.48;13.77;;;;;;;1.78;100.00;102230.41;7397130;19;20380;-66
2023/12/15 03:30:30;;;;;;;22.90;13.57;;;;;;;1.74;100.00;102233.72;7398335;19;20015;-67
2023/12/15 03:33:01;;;;;;;23.40;13.85;;;;;;;1.70;100.00;102229.25;7397301;19;20014;-67
2023/12/15 03:35:30;;;;;;;19.52;13.40;;;;;;;1.68;100.00;102231.78;7395892;19;20014;-66
2023/12/15 03:37:58;;;;;;;24.15;13.10;;;;;;;1.64;100.00;102232.47;7398221;19;20028;-67
2023/12/15 03:40:27;;;;;;;21.17;13.55;;;;;;;1.60;100.00;102235.75;7398088;19;20010;-67
2023/12/15 03:42:55;;;;;;;25.05;13.88;;;;;;;1.55;100.00;102239.88;7397561;19;20010;-67
2023/12/15 03:45:25;;;;;;;21.63;13.43;;;;;;;1.49;100.00;102237.91;7395711;19;20028;-67
2023/12/15 03:47:54;;;;;;;26.33;13.10;;;;;;;1.45;100.00;102242.09;7397168;19;20011;-67
2023/12/15 03:50:25;;;;;;;19.38;13.20;;;;;;;1.42;100.00;102248.84;7395537;19;20481;-67
2023/12/15 03:52:53;;;;;;;21.55;14.27;;;;;;;1.38;100.00;102249.53;7396999;19;20014;-67
2023/12/15 03:55:22;;;;;;;22.02;13.68;;;;;;;1.34;100.00;102252.81;7397613;19;20031;-67
2023/12/15 03:57:50;;;;;;;22.65;13.80;;;;;;;1.30;100.00;102259.56;7397010;19;20516;-67
2023/12/15 04:00:20;;;;;;;22.80;14.57;;;;;;;1.26;100.00;102258.59;7398652;19;20074;-67
2023/12/15 04:02:49;;;;;;;24.58;14.15;;;;;;;1.22;100.00;102263.56;7395492;19;20018;-68
2023/12/15 04:05:18;;;;;;;25.02;14.50;;;;;;;1.16;100.00;102260.72;7397225;19;20019;-68
2023/12/15 04:07:49;;;;;;;23.15;13.85;;;;;;;1.10;100.00;102275.16;7396610;19;20031;-67
2023/12/15 04:10:17;;;;;;;23.67;13.70;;;;;;;1.06;100.00;102267.19;7395971;19;20031;-67
2023/12/15 04:12:46;;;;;;;24.20;14.48;;;;;;;1.01;100.00;102277.38;7396863;19;20101;-67
2023/12/15 04:15:18;;;;;;;25.02;13.52;;;;;;;0.96;100.00;102276.25;7394885;19;20498;-68
2023/12/15 04:17:52;;;;;;;22.02;13.50;;;;;;;0.89;100.00;102275.13;7395200;19;20010;-69
2023/12/15 04:20:21;;;;;;;24.30;14.65;;;;;;;0.85;100.00;102274.91;7396426;19;20548;-67
2023/12/15 04:22:52;;;;;;;24.98;14.63;;;;;;;0.79;100.00;102272.97;7394763;19;20083;-67
2023/12/15 04:25:20;;;;;;;24.75;14.60;;;;;;;0.75;100.00;102273.66;7396426;19;20070;-66
2023/12/15 04:27:49;;;;;;;22.80;14.25;;;;;;;0.71;100.00;102282.06;7394681;19;20015;-67
2023/12/15 04:30:18;;;;;;;24.90;14.82;;;;;;;0.64;100.00;102284.41;7394938;19;20035;-65
2023/12/15 04:32:44;;;;;;;22.92;14.35;;;;;;;0.61;100.00;102281.69;7395817;19;20018;-65
2023/12/15 04:35:13;;;;;;;29.45;15.35;;;;;;;0.56;100.00;102292.63;7396389;19;20021;-65
2023/12/15 04:37:44;;;;;;;27.65;14.35;;;;;;;0.53;100.00;102289.91;7396279;19;20014;-65
2023/12/15 04:40:16;;;;;;;27.65;15.05;;;;;;;0.49;100.00;102304.38;7396784;19;20015;-65
2023/12/15 04:42:44;;;;;;;25.27;15.13;;;;;;;0.44;100.00;102306.78;7397831;19;20016;-66
2023/12/15 04:45:12;;;;;;;25.90;14.63;;;;;;;0.41;100.00;102314.38;7395682;19;20519;-67
2023/12/15 04:47:41;;;;;;;27.80;14.50;;;;;;;0.38;100.00;102314.25;7395736;19;20074;-67
2023/12/15 04:50:10;;;;;;;27.33;14.63;;;;;;;0.34;100.00;102320.06;7393750;19;20078;-67
2023/12/15 04:52:39;;;;;;;26.92;15.02;;;;;;;0.30;100.00;102321.63;7395551;19;20023;-68
2023/12/15 04:55:08;;;;;;;25.52;14.98;;;;;;;0.27;100.00;102312.88;7394251;19;20031;-67
2023/12/15 04:57:46;;;;;;;26.13;14.43;;;;;;;0.24;100.00;102311.03;7395852;19;20074;-67
2023/12/15 05:00:15;;;;;;;29.42;15.35;;;;;;;0.21;100.00;102312.59;7395137;19;20027;-67
2023/12/15 05:02:44;;;;;;;24.25;14.35;;;;;;;0.18;100.00;102315.91;7395131;19;20018;-67
2023/12/15 05:05:12;;;;;;;27.45;14.18;;;;;;;0.15;100.00;102318.31;7394855;19;20011;-67
2023/12/15 05:07:40;;;;;;;26.35;14.98;;;;;;;0.11;100.00;102317.28;7395509;19;20050;-67
2023/12/15 05:10:10;;;;;;;37.40;14.75;;;;;;;0.09;100.00;102315.47;7394669;19;20094;-67
2023/12/15 05:12:39;;;;;;;29.55;15.50;;;;;;;0.07;100.00;102314.53;7395516;19;20086;-69
2023/12/15 05:15:11;;;;;;;28.95;15.57;;;;;;;0.05;100.00;102321.28;7394674;19;20540;-68
2023/12/15 05:17:39;;;;;;;27.48;15.85;;;;;;;0.02;100.00;102310.84;7393587;19;20032;-68
2023/12/15 05:20:10;;;;;;;29.17;15.25;;;;;;;0.00;100.00;102321.09;7393190;19;20026;-68
2023/12/15 05:22:38;;;;;;;29.17;15.20;;;;;;;-0.01;100.00;102327.06;7394171;19;20379;-68
2023/12/15 05:25:07;;;;;;;30.42;15.18;;;;;;;-0.03;100.00;102328.69;7395133;19;20085;-68
2023/12/15 05:27:37;;;;;;;30.65;15.13;;;;;;;-0.05;100.00;102330.28;7394406;19;20018;-68
2023/12/15 05:30:06;;;;;;;32.22;15.95;;;;;;;-0.07;100.00;102332.81;7394169;19;20517;-68
2023/12/15 05:32:43;;;;;;;31.00;16.15;;;;;;;-0.10;100.00;102340.41;7393897;19;20424;-68
2023/12/15 05:35:12;;;;;;;28.42;14.63;;;;;;;-0.10;100.00;102357.56;7400983;19;20061;-68
2023/12/15 05:37:40;;;;;;;32.97;15.90;;;;;;;-0.12;100.00;102349.78;7401887;19;20085;-68
2023/12/15 05:40:12;;;;;;;29.00;14.75;;;;;;;-0.13;100.00;102352.28;7401868;19;20015;-68
2023/12/15 05:42:40;;;;;;;28.75;15.32;;;;;;;-0.15;100.00;102353.88;7400955;19;20472;-68
2023/12/15 05:45:09;;;;;;;32.95;15.45;;;;;;;-0.17;100.00;102357.28;7401260;19;20361;-68
2023/12/15 05:47:41;;;;;;;28.92;15.45;;;;;;;-0.18;100.00;102357.22;7401791;19;20354;-68
2023/12/15 05:50:10;;;;;;;31.05;15.55;;;;;;;-0.21;100.00;102357.06;7399370;19;20026;-68
2023/12/15 05:52:39;;;;;;;29.48;15.35;;;;;;;-0.23;100.00;102361.25;7398815;19;20497;-69
2023/12/15 05:55:08;;;;;;;33.63;14.70;;;;;;;-0.25;100.00;102368.94;7401123;19;20426;-68
2023/12/15 05:57:37;;;;;;;31.83;15.55;;;;;;;-0.26;100.00;102361.13;7400941;19;20069;-68
2023/12/15 06:00:06;;;;;;;31.88;15.68;;;;;;;-0.29;100.00;102367.03;7398452;19;20477;-68
2023/12/15 06:02:34;;;;;;;29.50;15.35;;;;;;;-0.31;100.00;102371.22;7400166;19;20018;-68
2023/12/15 06:05:06;;;;;;;33.10;14.85;;;;;;;-0.33;100.00;102372.81;7400694;19;20014;-68
2023/12/15 06:07:40;;;;;;;31.30;14.88;;;;;;;-0.33;100.00;102375.41;7397406;19;20504;-67
2023/12/15 06:10:10;;;;;;;32.10;15.77;;;;;;;-0.35;100.00;102374.47;7397503;19;20082;-67
2023/12/15 06:12:39;;;;;;;27.33;14.27;;;;;;;-0.39;100.00;102382.84;7400655;19;20050;-67
2023/12/15 06:15:10;;;;;;;31.23;14.35;;;;;;;-0.42;100.00;102383.56;7400589;19;20083;-68
2023/12/15 06:17:39;;;;;;;31.83;15.38;;;;;;;-0.43;100.00;102384.41;7399771;19;20016;-67
2023/12/15 06:20:11;;;;;;;31.05;16.05;;;;;;;-0.45;100.00;102390.28;7400146;19;20406;-68
2023/12/15 06:22:39;;;;;;;31.40;15.25;;;;;;;-0.46;100.00;102396.25;7399499;19;20031;-68
2023/12/15 06:25:08;;;;;;;32.55;16.08;;;;;;;-0.47;100.00;102407.38;7396761;19;20098;-70
2023/12/15 06:27:37;;;;;;;32.20;16.25;;;;;;;-0.48;100.00;102409.06;7400375;19;20082;-69
2023/12/15 06:30:06;;;;;;;33.05;15.50;;;;;;;-0.48;100.00;102410.75;7397837;19;20078;-69
2023/12/15 06:32:35;;;;;;;30.83;14.10;;;;;;;-0.50;100.00;102410.69;7399158;19;20018;-68
2023/12/15 06:35:09;;;;;;;28.42;14.80;;;;;;;-0.53;100.00;102416.56;7399799;19;20077;-69
2023/12/15 06:37:40;;;;;;;31.85;14.55;;;;;;;-0.55;100.00;102415.59;7399723;19;20666;-68
2023/12/15 06:40:11;;;;;;;29.08;14.60;;;;;;;-0.57;100.00;102418.91;7400165;19;20071;-68
2023/12/15 06:42:40;;;;;;;36.05;16.05;;;;;;;-0.59;100.00;102426.56;7398783;19;20520;-68
2023/12/15 06:45:10;;;;;;;35.20;15.52;;;;;;;-0.61;100.00;102419.56;7398221;19;20446;-68
2023/12/15 06:47:40;;;;;;;36.50;15.73;;;;;;;-0.62;100.00;102418.69;7399529;19;20075;-68
2023/12/15 06:50:10;;;;;;;32.58;15.75;;;;;;;-0.62;100.00;102423.84;7397718;19;20010;-68
2023/12/15 06:52:41;;;;;;;40.13;17.65;;;;;;;-0.62;100.00;102428.09;7399141;19;20540;-68
2023/12/15 06:55:10;;;;;;;45.10;18.08;;;;;;;-0.62;100.00;102431.56;7399298;19;20074;-68
2023/12/15 06:57:39;;;;;;;39.90;18.10;;;;;;;-0.60;100.00;102436.81;7400160;19;20013;-68
2023/12/15 07:00:09;;;;;;;42.90;17.83;;;;;;;-0.59;100.00;102436.88;7402315;19;20027;-67
2023/12/15 07:02:38;;;;;;;46.97;18.52;;;;;;;-0.58;100.00;102435.16;7400056;19;20015;-67
2023/12/15 07:05:07;;;;;;;44.30;17.77;;;;;;;-0.55;100.00;102440.50;7400460;19;20031;-67
2023/12/15 07:07:36;;;;;;;47.78;18.23;;;;;;;-0.55;100.00;102440.50;7399657;19;20036;-67
2023/12/15 07:10:08;;;;;;;45.10;18.45;;;;;;;-0.52;100.00;102457.03;7396990;19;20074;-67
2023/12/15 07:12:37;;;;;;;47.00;19.52;;;;;;;-0.51;100.00;102463.91;7398096;19;20545;-67
2023/12/15 07:15:06;;;;;;;45.85;17.88;;;;;;;-0.48;100.00;102462.31;7396185;19;20078;-67
2023/12/15 07:17:34;;;;;;;44.58;19.30;;;;;;;-0.46;100.00;102466.75;7399007;19;20070;-67
2023/12/15 07:20:04;;;;;;;54.50;20.10;;;;;;;-0.42;100.00;102472.94;7398200;19;20078;-67
2023/12/15 07:22:32;;;;;;;52.78;19.58;;;;;;;-0.41;100.00;102485.03;7397991;19;20011;-67
2023/12/15 07:25:00;;;;;;;46.17;19.70;;;;;;;-0.36;100.00;102483.59;7398369;19;20017;-67
2023/12/15 07:27:31;;;;;;;55.35;21.50;;;;;;;-0.32;100.00;102480.34;7397983;19;20225;-67
2023/12/15 07:30:00;;;;;;;53.28;20.45;;;;;;;-0.29;100.00;102489.94;7397386;19;20164;-68
2023/12/15 07:32:28;;;;;;;46.63;20.05;;;;;;;-0.25;100.00;102492.75;7398184;19;20014;-68
2023/12/15 07:34:58;;;;;;;56.88;22.17;;;;;;;-0.22;100.00;102492.91;7398398;19;20033;-68
2023/12/15 07:37:26;;;;;;;53.42;22.25;;;;;;;-0.19;100.00;102499.91;7398082;19;20013;-67
2023/12/15 07:39:54;;;;;;;61.00;22.48;;;;;;;-0.15;100.00;102503.53;7397550;19;20481;-66
2023/12/15 07:42:23;;;;;;;55.65;23.35;;;;;;;-0.12;100.00;102508.88;7396796;19;20570;-66
2023/12/15 07:44:54;;;;;;;61.08;22.75;;;;;;;-0.07;100.00;102502.25;7397590;19;20022;-67
2023/12/15 07:47:22;;;;;;;53.78;22.13;;;;;;;-0.05;100.00;102493.75;7398397;19;20031;-67
2023/12/15 07:49:51;;;;;;;54.22;21.42;;;;;;;-0.02;100.00;102501.66;7395150;19;20082;-66
2023/12/15 07:52:19;;;;;;;54.72;21.55;;;;;;;0.02;100.00;102504.41;7397046;19;20074;-67
2023/12/15 07:54:48;;;;;;;57.38;23.02;;;;;;;0.07;100.00;102508.09;7395417;19;20018;-70
2023/12/15 07:57:16;;;;;;;62.80;22.15;;;;;;;0.10;100.00;102503.97;7394486;19;20423;-68
2023/12/15 07:59:54;;;;;;;55.65;22.05;;;;;;;0.13;100.00;102506.69;7397183;19;20027;-67
2023/12/15 08:02:22;;;;;;;55.78;23.00;;;;;;;0.15;100.00;102499.91;7397498;19;20083;-67
2023/12/15 08:04:50;;;;;;;55.42;21.52;;;;;;;0.19;100.00;102500.97;7396938;19;20082;-67
2023/12/15 08:07:19;;;;;;;59.38;22.13;;;;;;;0.23;100.00;102507.13;7394714;19;20074;-67
2023/12/15 08:09:47;;;;;;;62.28;23.00;;;;;;;0.25;100.00;102508.09;7394383;19;20502;-68
2023/12/15 08:12:16;;;;;;;50.58;22.52;;;;;;;0.28;100.00;102510.84;7395172;19;20014;-67
2023/12/15 08:14:44;;;;;;;53.03;19.85;;;;;;;0.32;100.00;102515.34;7394865;19;20438;-66
2023/12/15 08:17:15;;;;;;;53.72;20.75;;;;;;;0.35;100.00;102518.06;7396639;19;20070;-67
2023/12/15 08:19:44;;;;;;;58.60;22.05;;;;;;;0.38;100.00;102507.91;7396142;19;20367;-67
2023/12/15 08:22:13;;;;;;;51.53;23.30;;;;;;;0.41;100.00;102518.38;7395237;19;20014;-67
2023/12/15 08:24:42;;;;;;;52.10;20.60;;;;;;;0.43;100.00;102519.34;7394925;19;20074;-70
2023/12/15 08:27:12;;;;;;;51.20;21.92;;;;;;;0.48;100.00;102516.97;7394737;19;20040;-68
2023/12/15 08:29:41;;;;;;;50.05;21.90;;;;;;;0.51;100.00;102514.53;7395522;19;20011;-66
2023/12/15 08:32:09;;;;;;;55.35;24.13;;;;;;;0.54;100.00;102513.81;7394599;19;20082;-67
2023/12/15 08:34:42;;;;;;;56.28;23.35;;;;;;;0.56;100.00;102505.31;7393812;19;20086;-66
2023/12/15 08:37:10;;;;;;;53.78;22.98;;;;;;;0.59;100.00;102502.00;7396000;19;20017;-67
2023/12/15 08:39:38;;;;;;;51.97;22.30;;;;;;;0.63;100.00;102509.06;7396066;19;20074;-67
2023/12/15 08:42:07;;;;;;;52.80;22.55;;;;;;;0.63;100.00;102507.38;7395702;19;20164;-67
2023/12/15 08:44:35;;;;;;;55.78;23.85;;;;;;;0.67;100.00;102504.94;7393982;19;20094;-67
2023/12/15 08:47:04;;;;;;;62.40;24.42;;;;;;;0.69;100.00;102509.34;7395580;19;20018;-67
2023/12/15 08:49:32;;;;;;;61.00;26.58;;;;;;;0.70;100.00;102508.56;7394715;19;20070;-67
2023/12/15 08:52:03;;;;;;;67.57;26.13;;;;;;;0.72;100.00;102511.19;7395397;19;20073;-68
2023/12/15 08:54:31;;;;;;;69.78;27.00;;;;;;;0.75;100.00;102512.22;7393440;19;20429;-66
2023/12/15 08:57:00;;;;;;;67.38;26.48;;;;;;;0.76;100.00;102516.59;7395385;19;20091;-66
2023/12/15 08:59:28;;;;;;;59.03;25.48;;;;;;;0.78;100.00;102525.31;7395135;19;20077;-67
2023/12/15 09:01:57;;;;;;;60.42;26.73;;;;;;;0.80;100.00;102523.66;7394780;19;20082;-67
2023/12/15 09:04:26;;;;;;;61.83;25.27;;;;;;;0.81;100.00;102524.56;7393786;19;20015;-66
2023/12/15 09:06:54;;;;;;;55.00;24.85;;;;;;;0.84;100.00;102529.88;7392650;19;20024;-66
2023/12/15 09:09:26;;;;;;;56.72;25.10;;;;;;;0.85;100.00;102536.81;7393086;19;20090;-67
2023/12/15 09:11:54;;;;;;;58.88;24.95;;;;;;;0.89;100.00;102543.03;7393596;19;20081;-66
2023/12/15 09:14:23;;;;;;;58.53;25.95;;;;;;;0.90;100.00;102549.97;7393363;19;20088;-67
2023/12/15 09:16:52;;;;;;;51.88;24.05;;;;;;;0.91;100.00;102557.78;7394817;19;20357;-67
2023/12/15 09:19:20;;;;;;;52.63;23.90;;;;;;;0.94;100.00;102560.50;7395013;19;20010;-69
2023/12/15 09:21:49;;;;;;;50.08;21.70;;;;;;;0.98;100.00;102569.28;7397251;19;20006;-66
2023/12/15 09:24:17;;;;;;;56.45;24.48;;;;;;;1.03;100.00;102580.72;7392821;19;20162;-66
2023/12/15 09:26:49;;;;;;;52.90;24.33;;;;;;;1.05;100.00;102584.28;7394621;19;20015;-67
2023/12/15 09:29:19;;;;;;;48.10;22.55;;;;;;;1.08;100.00;102586.13;7394243;19;20018;-66
2023/12/15 09:31:47;;;;;;;51.45;23.25;;;;;;;1.13;100.00;102587.22;7392299;19;20011;-67
2023/12/15 09:34:17;;;;;;;53.53;23.08;;;;;;;1.14;100.00;102589.88;7392605;19;20017;-67
2023/12/15 09:36:45;;;;;;;44.30;22.27;;;;;;;1.18;100.00;102593.50;7394429;19;20010;-67
2023/12/15 09:39:14;;;;;;;45.30;22.38;;;;;;;1.19;100.00;102586.59;7393953;19;20501;-66
2023/12/15 09:41:42;;;;;;;46.95;22.45;;;;;;;1.22;100.00;102586.75;7394292;19;20028;-66
2023/12/15 09:44:15;;;;;;;48.55;23.17;;;;;;;1.25;100.00;102590.38;7391600;19;20541;-66
2023/12/15 09:46:45;;;;;;;47.22;23.30;;;;;;;1.30;100.00;102598.34;7394144;19;20014;-67
2023/12/15 09:49:18;;;;;;;44.80;21.38;;;;;;;1.33;100.00;102593.31;7393480;19;20485;-67
2023/12/15 09:51:51;;;;;;;41.30;21.95;;;;;;;1.35;100.00;102589.09;7393847;19;20007;-67
2023/12/15 09:54:22;;;;;;;46.90;23.03;;;;;;;1.40;100.00;102586.72;7391674;19;20397;-67
2023/12/15 09:56:57;;;;;;;46.75;22.92;;;;;;;1.43;100.00;102600.69;7393992;19;20429;-67
2023/12/15 09:59:28;;;;;;;47.88;24.27;;;;;;;1.47;100.00;102588.78;7393685;19;20093;-67
2023/12/15 10:01:57;;;;;;;51.00;26.10;;;;;;;1.52;100.00;102589.88;7393069;19;20078;-67
2023/12/15 10:04:25;;;;;;;49.22;23.20;;;;;;;1.55;100.00;102597.75;7391377;19;20438;-67
2023/12/15 10:06:53;;;;;;;58.25;27.60;;;;;;;1.60;100.00;102597.97;7393816;19;20077;-67
2023/12/15 10:09:22;;;;;;;46.28;23.40;;;;;;;1.64;100.00;102602.47;7391193;19;20074;-67
2023/12/15 10:11:51;;;;;;;49.80;23.35;;;;;;;1.68;100.00;102606.97;7391248;19;20032;-67
2023/12/15 10:14:19;;;;;;;48.10;22.38;;;;;;;1.71;100.00;102604.50;7390404;19;20485;-66
2023/12/15 10:16:50;;;;;;;49.80;24.83;;;;;;;1.75;100.00;102613.31;7392227;19;20086;-67
2023/12/15 10:19:19;;;;;;;47.25;22.65;;;;;;;1.77;100.00;102609.97;7393599;19;20082;-66
2023/12/15 10:21:49;;;;;;;48.83;22.48;;;;;;;1.82;100.00;102609.28;7400660;19;20011;-70
2023/12/15 10:24:22;;;;;;;49.90;23.40;;;;;;;1.85;100.00;102606.84;7398069;19;20082;-67
2023/12/15 10:26:51;;;;;;;49.55;23.10;;;;;;;1.90;100.00;102613.09;7400288;19;20105;-67
2023/12/15 10:29:21;;;;;;;46.88;23.95;;;;;;;1.95;100.00;102606.44;7400004;19;20074;-66
2023/12/15 10:31:52;;;;;;;47.15;22.10;;;;;;;1.98;100.00;102606.53;7399511;19;20360;-67
2023/12/15 10:34:24;;;;;;;45.92;22.60;;;;;;;2.03;100.00;102604.16;7396646;19;20472;-67
2023/12/15 10:36:53;;;;;;;51.85;23.25;;;;;;;2.05;100.00;102603.41;7400947;19;20015;-67
2023/12/15 10:39:24;;;;;;;46.78;23.40;;;;;;;2.08;100.00;102600.94;7399568;19;20018;-65
2023/12/15 10:41:53;;;;;;;49.42;24.25;;;;;;;2.09;100.00;102604.44;7400345;19;20032;-66
2023/12/15 10:44:23;;;;;;;44.58;21.92;;;;;;;2.10;100.00;102599.31;7397870;19;20022;-66
2023/12/15 10:46:55;;;;;;;44.53;22.48;;;;;;;2.13;100.00;102602.88;7399833;19;20086;-66
2023/12/15 10:49:24;;;;;;;47.03;23.48;;;;;;;2.15;100.00;102604.69;7399535;19;20018;-67
2023/12/15 10:51:53;;;;;;;48.83;23.20;;;;;;;2.18;100.00;102609.13;7399435;19;20025;-67
2023/12/15 10:54:21;;;;;;;41.72;22.33;;;;;;;2.20;100.00;102613.53;7396866;19;20031;-67
2023/12/15 10:56:51;;;;;;;49.38;22.13;;;;;;;2.24;100.00;102614.56;7399520;19;20066;-66
2023/12/15 10:59:20;;;;;;;46.72;22.83;;;;;;;2.27;100.00;102614.69;7398698;19;20025;-66
2023/12/15 11:01:49;;;;;;;48.88;23.42;;;;;;;2.30;100.00;102620.00;7398333;19;20498;-68
2023/12/15 11:04:27;;;;;;;47.22;24.33;;;;;;;2.33;100.00;102608.91;7397022;19;20078;-67
2023/12/15 11:06:56;;;;;;;47.08;23.23;;;;;;;2.36;100.00;102612.47;7400336;19;20332;-66
2023/12/15 11:09:30;;;;;;;44.50;23.35;;;;;;;2.38;100.00;102616.03;7396363;19;20011;-66
2023/12/15 11:12:39;;;;;;;47.58;22.80;;;;;;;2.40;100.00;102611.81;7397245;19;20014;-66
2023/12/15 11:15:10;;;;;;;45.78;22.48;;;;;;;2.43;100.00;102605.88;7398742;19;20018;-66
2023/12/15 11:17:41;;;;;;;44.72;23.17;;;;;;;2.44;100.00;102618.88;7398002;19;20439;-66